createdAt,value
2023-06-21T00:01:01.819Z,86.97
2023-06-21T00:03:59.848Z,86.61
2023-06-21T00:06:41.342Z,86.38
2023-06-21T00:09:15.523Z,86.08
2023-06-21T00:11:48.068Z,85.68
2023-06-21T00:14:42.393Z,85.58
2023-06-21T00:17:21.798Z,84.94
2023-06-21T00:20:07.696Z,84.37
2023-06-21T00:23:04.089Z,84.17
2023-06-21T00:25:39.648Z,83.79
2023-06-21T00:28:29.045Z,83.37
2023-06-21T00:31:33.342Z,82.83
2023-06-21T00:34:09.666Z,82.57
2023-06-21T00:36:45.664Z,82.85
2023-06-21T00:39:52.549Z,82.76
2023-06-21T00:42:34.142Z,82.91
2023-06-21T00:45:09.746Z,83.15
2023-06-21T00:47:50.406Z,83.19
2023-06-21T00:50:27.358Z,83.42
2023-06-21T00:53:10.465Z,83.58
2023-06-21T00:55:41.817Z,83.76
2023-06-21T00:58:13.814Z,83.64
2023-06-21T01:00:47.158Z,83.53
2023-06-21T01:03:18.439Z,83.35
2023-06-21T01:06:03.864Z,83.46
2023-06-21T01:08:43.310Z,83.57
2023-06-21T01:11:28.362Z,83.47
2023-06-21T01:14:28.764Z,83.33
2023-06-21T01:24:44.035Z,83.76
2023-06-21T01:27:53.723Z,83.77
2023-06-21T01:30:35.774Z,83.96
2023-06-21T01:33:20.102Z,84.10
2023-06-21T01:35:57.699Z,84.20
2023-06-21T01:38:31.101Z,84.38
2023-06-21T01:41:02.802Z,84.64
2023-06-21T01:43:35.440Z,84.73
2023-06-21T01:46:37.118Z,84.97
2023-06-21T01:49:12.018Z,85.26
2023-06-21T01:51:49.468Z,85.55
2023-06-21T01:54:21.709Z,85.91
2023-06-21T01:57:02.763Z,86.23
2023-06-21T01:59:35.946Z,86.27
2023-06-21T02:02:11.796Z,86.26
2023-06-21T02:04:50.688Z,86.25
2023-06-21T02:07:23.333Z,86.15
2023-06-21T02:09:54.858Z,86.05
2023-06-21T02:12:36.716Z,85.93
2023-06-21T02:15:18.256Z,85.73
2023-06-21T02:17:51.121Z,85.68
2023-06-21T02:20:30.407Z,85.59
2023-06-21T02:23:11.451Z,85.51
2023-06-21T02:25:57.699Z,85.15
2023-06-21T02:28:36.653Z,84.17
2023-06-21T02:31:37.014Z,83.20
2023-06-21T02:34:10.128Z,82.56
2023-06-21T02:36:43.480Z,82.34
2023-06-21T02:40:00.596Z,81.89
2023-06-21T02:43:05.100Z,81.50
2023-06-21T02:45:37.922Z,81.09
2023-06-21T02:48:11.344Z,80.73
2023-06-21T02:50:50.919Z,80.31
2023-06-21T02:53:34.065Z,79.83
2023-06-21T02:56:05.675Z,79.88
2023-06-21T02:58:43.231Z,79.59
2023-06-21T03:01:18.772Z,79.34
2023-06-21T03:03:53.647Z,78.95
2023-06-21T03:06:49.735Z,78.69
2023-06-21T03:09:49.389Z,78.48
2023-06-21T03:12:45.689Z,78.26
2023-06-21T03:15:21.059Z,77.94
2023-06-21T03:18:39.574Z,77.86
2023-06-21T03:21:23.467Z,78.21
2023-06-21T03:23:59.042Z,78.03
2023-06-21T03:26:51.554Z,77.86
2023-06-21T03:29:47.252Z,77.58
2023-06-21T03:32:17.680Z,77.32
2023-06-21T03:34:59.467Z,77.39
2023-06-21T03:37:41.808Z,77.52
2023-06-21T03:40:34.225Z,77.52
2023-06-21T03:47:07.142Z,77.68
2023-06-21T03:50:00.249Z,77.58
2023-06-21T03:52:52.957Z,77.37
2023-06-21T03:55:28.312Z,77.38
2023-06-21T03:58:05.830Z,77.24
2023-06-21T04:00:39.900Z,77.37
2023-06-21T04:06:09.455Z,76.62
2023-06-21T04:08:45.997Z,76.49
2023-06-21T04:11:22.054Z,76.69
2023-06-21T04:14:00.537Z,76.93
2023-06-21T04:16:46.887Z,76.53
2023-06-21T04:19:26.691Z,75.99
2023-06-21T04:22:24.624Z,76.22
2023-06-21T04:25:19.684Z,75.78
2023-06-21T04:27:54.758Z,76.05
2023-06-21T04:31:07.211Z,76.91
2023-06-21T04:33:44.236Z,77.85
2023-06-21T04:36:27.127Z,78.48
2023-06-21T04:38:58.050Z,78.84
2023-06-21T04:41:34.219Z,79.06
2023-06-21T04:44:09.670Z,79.34
2023-06-21T04:46:46.013Z,79.45
2023-06-21T04:49:29.006Z,79.59
2023-06-21T04:52:03.140Z,79.98
2023-06-21T04:54:37.780Z,79.95
2023-06-21T04:57:19.060Z,80.09
2023-06-21T05:00:45.221Z,79.90
2023-06-21T05:03:24.866Z,77.66
2023-06-21T05:06:05.470Z,76.55
2023-06-21T05:09:01.639Z,75.62
2023-06-21T05:12:04.217Z,75.18
2023-06-21T05:14:46.471Z,74.28
2023-06-21T05:17:18.011Z,73.53
2023-06-21T05:20:04.499Z,72.86
2023-06-21T05:22:45.371Z,72.35
2023-06-21T05:25:21.413Z,71.11
2023-06-21T05:28:02.316Z,71.84
2023-06-21T05:30:33.152Z,71.76
2023-06-21T05:33:29.158Z,71.38
2023-06-21T05:36:53.859Z,70.61
2023-06-21T05:39:28.451Z,69.99
2023-06-21T05:42:15.541Z,70.40
2023-06-21T05:45:13.804Z,70.98
2023-06-21T05:47:50.565Z,70.31
2023-06-21T05:50:34.201Z,70.12
2023-06-21T05:53:20.899Z,70.53
2023-06-21T05:56:01.142Z,69.55
2023-06-21T05:58:45.568Z,69.00
2023-06-21T06:01:25.148Z,68.27
2023-06-21T06:04:20.386Z,68.34
2023-06-21T06:07:14.592Z,68.46
2023-06-21T06:09:53.374Z,68.41
2023-06-21T06:13:07.028Z,67.78
2023-06-21T06:16:19.022Z,67.19
2023-06-21T06:20:01.405Z,66.53
2023-06-21T06:22:46.315Z,66.44
2023-06-21T06:25:49.291Z,66.10
2023-06-21T06:28:26.938Z,65.46
2023-06-21T06:31:18.664Z,64.52
2023-06-21T06:34:12.308Z,63.96
2023-06-21T06:37:32.725Z,63.90
2023-06-21T06:40:23.087Z,62.91
2023-06-21T06:43:28.349Z,62.42
2023-06-21T06:46:18.365Z,62.70
2023-06-21T06:49:06.363Z,62.71
2023-06-21T06:51:59.634Z,62.52
2023-06-21T07:22:40.614Z,57.14
2023-06-21T07:30:17.438Z,57.76
2023-06-21T07:34:27.777Z,58.29
2023-06-21T07:41:36.872Z,57.50
2023-06-21T07:48:21.442Z,58.19
2023-06-21T07:51:14.318Z,57.64
2023-06-21T07:58:35.562Z,55.34
2023-06-21T08:01:22.073Z,55.36
2023-06-21T08:08:01.933Z,55.36
2023-06-21T08:10:39.856Z,56.30
2023-06-21T08:13:43.192Z,56.69
2023-06-21T08:17:03.465Z,56.86
2023-06-21T08:19:49.043Z,56.81
2023-06-21T08:22:30.349Z,56.73
2023-06-21T08:25:08.922Z,57.18
2023-06-21T08:27:50.875Z,57.70
2023-06-21T08:30:38.085Z,57.35
2023-06-21T08:35:59.937Z,56.60
2023-06-21T08:38:36.688Z,56.26
2023-06-21T08:41:07.328Z,56.07
2023-06-21T08:44:11.076Z,56.09
2023-06-21T08:47:01.899Z,56.05
2023-06-21T08:49:43.532Z,56.71
2023-06-21T08:52:48.299Z,56.76
2023-06-21T08:55:32.083Z,56.61
2023-06-21T08:58:14.103Z,56.15
2023-06-21T09:01:15.471Z,55.91
2023-06-21T09:04:17.560Z,55.75
2023-06-21T09:10:32.884Z,54.40
2023-06-21T09:13:08.647Z,54.64
2023-06-21T09:16:29.763Z,52.97
2023-06-21T09:19:09.261Z,52.30
2023-06-21T09:21:46.062Z,51.47
2023-06-21T09:28:35.604Z,49.66
2023-06-21T09:31:34.833Z,50.00
2023-06-21T09:34:17.363Z,51.59
2023-06-21T09:40:33.143Z,53.57
2023-06-21T09:43:31.954Z,54.35
2023-06-21T09:46:52.671Z,54.96
2023-06-21T09:49:48.052Z,56.22
2023-06-21T09:52:50.801Z,57.28
2023-06-21T09:55:49.440Z,58.09
2023-06-21T09:58:44.086Z,58.76
2023-06-21T10:01:37.197Z,59.35
2023-06-21T10:04:56.212Z,59.10
2023-06-21T10:07:48.327Z,57.42
2023-06-21T10:10:54.963Z,59.10
2023-06-21T10:13:59.274Z,60.00
2023-06-21T10:16:45.765Z,61.70
2023-06-21T10:19:25.779Z,63.38
2023-06-21T10:22:10.159Z,65.07
2023-06-21T10:24:50.990Z,65.59
2023-06-21T10:28:24.443Z,64.97
2023-06-21T10:31:04.614Z,63.02
2023-06-21T10:39:33.109Z,59.97
2023-06-21T10:42:33.051Z,58.28
2023-06-21T10:45:09.705Z,56.51
2023-06-21T10:48:45.284Z,54.01
2023-06-21T10:51:58.059Z,52.05
2023-06-21T10:55:28.989Z,49.98
2023-06-21T10:58:10.428Z,46.19
2023-06-21T11:01:51.912Z,45.85
2023-06-21T11:05:02.292Z,45.85
2023-06-21T11:07:49.164Z,45.54
2023-06-21T11:10:54.523Z,45.20
2023-06-21T11:13:43.867Z,45.41
2023-06-21T11:16:22.501Z,45.78
2023-06-21T11:19:03.165Z,46.69
2023-06-21T11:21:58.823Z,47.35
2023-06-21T11:30:34.668Z,49.25
2023-06-21T11:33:02.552Z,48.46
2023-06-21T11:35:51.346Z,48.27
2023-06-21T11:38:20.476Z,47.71
2023-06-21T11:40:48.236Z,47.84
2023-06-21T11:43:20.009Z,47.76
2023-06-21T11:45:57.088Z,47.43
2023-06-21T11:48:28.781Z,46.11
2023-06-21T11:50:58.243Z,45.35
2023-06-21T11:53:31.783Z,44.53
2023-06-21T11:56:01.476Z,44.03
2023-06-21T11:58:29.327Z,44.01
2023-06-21T12:00:57.277Z,43.28
2023-06-21T12:03:29.181Z,44.06
2023-06-21T12:05:59.047Z,44.22
2023-06-21T12:08:37.713Z,44.21
2023-06-21T12:11:09.312Z,43.27
2023-06-21T12:13:38.685Z,43.35
2023-06-21T12:16:08.027Z,42.38
2023-06-21T12:18:37.749Z,41.29
2023-06-21T12:21:06.620Z,41.98
2023-06-21T12:23:35.859Z,42.22
2023-06-21T12:26:04.954Z,41.53
2023-06-21T12:28:33.622Z,40.42
2023-06-21T12:31:06.288Z,39.98
2023-06-21T12:33:38.414Z,39.62
2023-06-21T12:36:32.292Z,39.11
2023-06-21T12:39:01.493Z,39.62
2023-06-21T12:41:30.942Z,39.87
2023-06-21T12:44:03.601Z,39.35
2023-06-21T12:46:41.056Z,39.62
2023-06-21T12:49:09.745Z,39.21
2023-06-21T12:51:38.065Z,39.34
2023-06-21T12:54:06.726Z,38.89
2023-06-21T12:56:42.292Z,38.66
2023-06-21T12:59:10.037Z,38.18
2023-06-21T13:01:38.605Z,38.24
2023-06-21T13:04:09.865Z,38.25
2023-06-21T13:06:39.673Z,38.00
2023-06-21T13:09:07.754Z,38.05
2023-06-21T13:11:35.714Z,38.13
2023-06-21T13:14:04.277Z,38.17
2023-06-21T13:16:31.989Z,37.88
2023-06-21T13:19:00.136Z,37.69
2023-06-21T13:21:29.479Z,37.31
2023-06-21T13:24:00.678Z,37.18
2023-06-21T13:26:28.603Z,37.07
2023-06-21T13:28:57.462Z,37.12
2023-06-21T13:31:25.632Z,36.71
2023-06-21T13:33:54.925Z,36.63
2023-06-21T13:36:24.102Z,36.71
2023-06-21T13:38:51.892Z,36.79
2023-06-21T13:41:19.878Z,36.48
2023-06-21T13:43:48.276Z,36.17
2023-06-21T13:46:16.586Z,36.63
2023-06-21T13:48:45.636Z,36.09
2023-06-21T13:51:13.452Z,35.53
2023-06-21T13:53:45.373Z,35.44
2023-06-21T13:56:13.280Z,35.43
2023-06-21T13:58:46.389Z,35.48
2023-06-21T14:01:14.160Z,35.57
2023-06-21T14:03:42.265Z,35.26
2023-06-21T14:06:10.176Z,34.89
2023-06-21T14:08:37.881Z,34.45
2023-06-21T14:11:05.494Z,34.71
2023-06-21T14:13:33.194Z,35.42
2023-06-21T14:16:02.072Z,35.57
2023-06-21T14:18:42.071Z,35.51
2023-06-21T14:21:15.709Z,35.53
2023-06-21T14:23:44.725Z,35.70
2023-06-21T14:26:12.592Z,35.61
2023-06-21T14:28:42.358Z,35.30
2023-06-21T14:31:13.716Z,34.97
2023-06-21T14:33:41.366Z,34.62
2023-06-21T14:36:09.285Z,34.86
2023-06-21T14:38:40.176Z,34.40
2023-06-21T14:41:08.878Z,34.45
2023-06-21T14:43:37.152Z,34.70
2023-06-21T14:46:05.627Z,34.89
2023-06-21T14:48:36.106Z,35.10
2023-06-21T14:51:13.195Z,34.95
2023-06-21T14:53:41.825Z,34.81
2023-06-21T14:56:09.682Z,34.92
2023-06-21T14:58:37.561Z,34.75
2023-06-21T15:01:06.807Z,34.48
2023-06-21T15:03:35.548Z,34.63
2023-06-21T15:06:06.556Z,34.55
2023-06-21T15:08:35.584Z,34.91
2023-06-21T15:11:03.425Z,34.56
2023-06-21T15:13:31.674Z,34.85
2023-06-21T15:16:01.693Z,35.08
2023-06-21T15:18:29.531Z,35.62
2023-06-21T15:20:57.114Z,35.53
2023-06-21T15:23:26.980Z,35.59
2023-06-21T15:25:54.979Z,35.25
2023-06-21T15:28:22.728Z,35.01
2023-06-21T15:30:50.629Z,35.08
2023-06-21T15:33:18.852Z,35.35
2023-06-21T15:35:48.982Z,35.49
2023-06-21T15:38:18.061Z,35.70
2023-06-21T15:40:45.836Z,35.67
2023-06-21T15:43:14.919Z,35.69
2023-06-21T15:45:43.165Z,35.84
2023-06-21T15:48:14.683Z,35.94
2023-06-21T15:50:44.182Z,35.89
2023-06-21T15:53:13.911Z,35.47
2023-06-21T15:55:41.781Z,35.46
2023-06-21T15:58:12.507Z,35.08
2023-06-21T16:00:42.396Z,35.07
2023-06-21T16:03:11.408Z,35.13
2023-06-21T16:05:39.576Z,35.14
2023-06-21T16:08:08.373Z,34.58
2023-06-21T16:10:38.246Z,34.75
2023-06-21T16:13:07.488Z,34.97
2023-06-21T16:15:37.181Z,35.04
2023-06-21T16:18:05.185Z,35.46
2023-06-21T16:20:34.611Z,36.11
2023-06-21T16:23:03.767Z,36.57
2023-06-21T16:25:31.457Z,37.18
2023-06-21T16:27:59.775Z,37.29
2023-06-21T16:30:28.625Z,36.91
2023-06-21T16:33:00.415Z,35.67
2023-06-21T16:35:30.678Z,35.37
2023-06-21T16:37:58.962Z,35.77
2023-06-21T16:40:26.854Z,35.83
2023-06-21T16:42:54.833Z,35.99
2023-06-21T16:45:24.934Z,36.10
2023-06-21T16:47:58.340Z,37.12
2023-06-21T16:50:27.475Z,39.94
2023-06-21T16:52:56.942Z,40.94
2023-06-21T16:55:27.680Z,41.58
2023-06-21T16:57:56.107Z,42.17
2023-06-21T17:00:25.347Z,42.60
2023-06-21T17:02:56.051Z,43.03
2023-06-21T17:05:30.202Z,43.39
2023-06-21T17:07:59.788Z,43.18
2023-06-21T17:10:27.842Z,43.11
2023-06-21T17:12:56.003Z,43.07
2023-06-21T17:15:24.586Z,43.14
2023-06-21T17:17:54.087Z,43.29
2023-06-21T17:20:21.838Z,43.63
2023-06-21T17:22:51.268Z,43.87
2023-06-21T17:25:19.191Z,43.93
2023-06-21T17:27:46.927Z,43.94
2023-06-21T17:30:14.724Z,43.40
2023-06-21T17:32:42.763Z,43.50
2023-06-21T17:35:13.566Z,43.72
2023-06-21T17:37:41.603Z,44.08
2023-06-21T17:40:12.410Z,44.37
2023-06-21T17:42:41.366Z,44.64
2023-06-21T17:45:10.259Z,44.92
2023-06-21T17:47:39.410Z,45.44
2023-06-21T17:50:09.277Z,46.05
2023-06-21T17:52:37.198Z,46.42
2023-06-21T17:55:05.297Z,46.84
2023-06-21T17:57:32.973Z,47.55
2023-06-21T18:00:00.846Z,48.10
2023-06-21T18:02:28.955Z,48.72
2023-06-21T18:05:01.125Z,49.13
2023-06-21T18:07:31.216Z,49.56
2023-06-21T18:09:59.169Z,50.00
2023-06-21T18:12:28.250Z,50.35
2023-06-21T18:14:55.922Z,50.67
2023-06-21T18:17:24.090Z,51.13
2023-06-21T18:19:51.783Z,51.40
2023-06-21T18:22:26.824Z,51.63
2023-06-21T18:25:07.584Z,51.94
2023-06-21T18:27:35.783Z,52.43
2023-06-21T18:30:08.824Z,52.89
2023-06-21T18:32:39.084Z,53.14
2023-06-21T18:35:13.837Z,53.61
2023-06-21T18:37:42.178Z,54.03
2023-06-21T18:40:11.083Z,53.97
2023-06-21T18:42:48.484Z,54.27
2023-06-21T18:45:16.291Z,54.39
2023-06-21T18:47:44.263Z,54.72
2023-06-21T18:50:12.070Z,54.62
2023-06-21T18:52:41.292Z,54.90
2023-06-21T18:55:14.704Z,54.99
2023-06-21T18:57:42.429Z,55.07
2023-06-21T19:00:13.280Z,55.47
2023-06-21T19:02:41.109Z,55.40
2023-06-21T19:05:09.352Z,55.92
2023-06-21T19:07:37.070Z,56.14
2023-06-21T19:10:05.263Z,56.00
2023-06-21T19:12:38.963Z,56.16
2023-06-21T19:15:08.486Z,56.44
2023-06-21T19:17:37.072Z,56.34
2023-06-21T19:20:06.445Z,56.15
2023-06-21T19:22:34.405Z,56.29
2023-06-21T19:25:02.272Z,56.56
2023-06-21T19:27:30.028Z,56.75
2023-06-21T19:34:31.263Z,57.07
2023-06-21T19:36:59.509Z,57.43
2023-06-21T19:39:28.316Z,57.31
2023-06-21T19:42:05.509Z,57.39
2023-06-21T19:44:33.529Z,57.87
2023-06-21T19:47:01.257Z,58.18
2023-06-21T19:49:29.139Z,58.27
2023-06-21T19:51:57.418Z,58.34
2023-06-21T19:54:26.918Z,58.49
2023-06-21T19:56:54.760Z,58.44
2023-06-21T19:59:25.255Z,58.63
2023-06-21T20:06:05.941Z,59.27
2023-06-21T20:08:48.433Z,59.52
2023-06-21T20:11:16.671Z,59.26
2023-06-21T20:13:47.722Z,59.35
2023-06-21T20:20:47.896Z,58.61
2023-06-21T20:23:16.566Z,58.31
2023-06-21T20:25:45.716Z,58.01
2023-06-21T20:28:13.507Z,58.06
2023-06-21T20:35:14.071Z,57.27
2023-06-21T20:37:42.481Z,56.99
2023-06-21T21:24:25.947Z,57.42
2023-06-21T23:18:02.652Z,57.90
2023-06-21T23:50:50.786Z,59.93
2023-06-21T23:53:25.448Z,59.97
